createdAt,value
2023-02-11T00:00:25.456Z,11.30
2023-02-11T00:03:19.350Z,12.00
2023-02-11T00:06:13.587Z,11.90
2023-02-11T00:09:07.242Z,12.00
2023-02-11T00:12:01.490Z,14.20
2023-02-11T00:14:55.319Z,16.20
2023-02-11T00:17:49.263Z,13.70
2023-02-11T00:20:43.168Z,13.40
2023-02-11T00:23:37.044Z,14.80
2023-02-11T00:26:31.897Z,12.30
2023-02-11T00:29:24.997Z,11.60
2023-02-11T00:32:18.760Z,11.60
2023-02-11T00:35:12.562Z,12.20
2023-02-11T00:38:06.294Z,10.40
2023-02-11T00:41:00.070Z,11.30
2023-02-11T00:43:53.912Z,10.60
2023-02-11T00:46:48.217Z,11.50
2023-02-11T00:49:42.861Z,11.80
2023-02-11T00:52:36.698Z,12.50
2023-02-11T00:55:30.943Z,10.90
2023-02-11T00:58:24.767Z,11.70
2023-02-11T01:01:18.759Z,11.00
2023-02-11T01:04:15.269Z,10.20
2023-02-11T01:07:09.038Z,11.50
2023-02-11T01:10:04.377Z,11.00
2023-02-11T01:12:58.267Z,11.10
2023-02-11T01:15:52.387Z,12.20
2023-02-11T01:18:46.828Z,10.50
2023-02-11T01:21:40.629Z,11.90
2023-02-11T01:24:34.527Z,10.40
2023-02-11T01:27:28.503Z,10.30
2023-02-11T01:30:22.383Z,10.70
2023-02-11T01:33:15.550Z,11.30
2023-02-11T01:36:13.236Z,11.30
2023-02-11T01:39:08.514Z,10.70
2023-02-11T01:42:02.320Z,10.60
2023-02-11T01:44:56.224Z,9.80
2023-02-11T01:47:49.988Z,8.90
2023-02-11T01:50:43.839Z,10.30
2023-02-11T01:53:51.604Z,10.90
2023-02-11T01:57:05.108Z,10.30
2023-02-11T02:00:09.949Z,9.30
2023-02-11T02:03:06.092Z,10.40
2023-02-11T02:06:01.804Z,11.20
2023-02-11T02:08:57.936Z,11.30
2023-02-11T02:11:50.393Z,10.30
2023-02-11T02:14:45.245Z,9.60
2023-02-11T02:17:42.934Z,9.90
2023-02-11T02:21:06.735Z,9.50
2023-02-11T02:24:25.267Z,10.30
2023-02-11T02:27:27.495Z,10.30
2023-02-11T02:30:39.437Z,10.40
2023-02-11T02:33:44.620Z,10.00
2023-02-11T02:36:41.799Z,10.10
2023-02-11T02:39:36.636Z,11.60
2023-02-11T02:42:29.782Z,10.00
2023-02-11T02:45:23.768Z,10.00
2023-02-11T02:48:31.588Z,10.20
2023-02-11T02:51:54.462Z,10.00
2023-02-11T02:55:20.618Z,10.50
2023-02-11T02:58:49.698Z,10.20
2023-02-11T03:01:48.584Z,9.30
2023-02-11T03:04:46.908Z,9.00
2023-02-11T03:07:43.075Z,10.70
2023-02-11T03:10:37.700Z,10.00
2023-02-11T03:13:33.532Z,10.50
2023-02-11T03:16:28.506Z,10.30
2023-02-11T03:19:23.504Z,11.80
2023-02-11T03:22:20.197Z,11.50
2023-02-11T03:25:13.395Z,11.10
2023-02-11T03:28:10.296Z,10.90
2023-02-11T03:31:10.729Z,10.40
2023-02-11T03:34:07.183Z,10.60
2023-02-11T03:37:02.826Z,10.60
2023-02-11T03:39:57.414Z,11.00
2023-02-11T03:42:53.850Z,10.30
2023-02-11T03:45:47.010Z,9.90
2023-02-11T03:48:42.117Z,10.10
2023-02-11T03:51:36.054Z,10.00
2023-02-11T03:54:31.385Z,10.50
2023-02-11T03:57:25.733Z,8.90
2023-02-11T04:00:19.943Z,9.90
2023-02-11T04:03:14.094Z,11.00
2023-02-11T04:06:08.157Z,9.10
2023-02-11T04:09:01.900Z,8.80
2023-02-11T04:11:55.656Z,9.10
2023-02-11T04:14:49.433Z,8.50
2023-02-11T04:17:43.360Z,8.70
2023-02-11T04:20:37.402Z,7.30
2023-02-11T04:23:31.181Z,6.50
2023-02-11T04:26:24.901Z,7.40
2023-02-11T04:29:19.023Z,6.60
2023-02-11T04:32:13.117Z,6.70
2023-02-11T04:35:08.423Z,7.90
2023-02-11T04:38:02.262Z,8.60
2023-02-11T04:40:56.216Z,7.70
2023-02-11T04:43:50.085Z,8.30
2023-02-11T04:46:43.897Z,8.30
2023-02-11T04:49:37.174Z,6.40
2023-02-11T04:52:31.093Z,7.20
2023-02-11T04:55:25.136Z,7.80
2023-02-11T04:58:19.495Z,6.10
2023-02-11T05:01:15.267Z,6.80
2023-02-11T05:04:08.673Z,6.70
2023-02-11T05:07:01.756Z,6.60
2023-02-11T05:09:55.506Z,6.40
2023-02-11T05:12:50.199Z,5.00
2023-02-11T05:15:43.409Z,7.10
2023-02-11T05:18:38.129Z,6.80
2023-02-11T05:21:31.627Z,7.00
2023-02-11T05:24:25.481Z,6.00
2023-02-11T05:27:19.227Z,5.40
2023-02-11T05:30:14.689Z,6.00
2023-02-11T05:33:07.914Z,6.20
2023-02-11T05:36:02.713Z,5.90
2023-02-11T05:38:56.478Z,6.90
2023-02-11T05:41:50.267Z,7.20
2023-02-11T05:44:44.047Z,6.90
2023-02-11T05:47:37.894Z,6.10
2023-02-11T05:50:31.842Z,6.90
2023-02-11T05:53:26.693Z,5.00
2023-02-11T05:56:20.517Z,6.60
2023-02-11T05:59:15.109Z,7.20
2023-02-11T06:02:09.486Z,6.20
2023-02-11T06:05:02.635Z,6.80
2023-02-11T06:07:56.391Z,7.20
2023-02-11T06:10:50.241Z,7.20
2023-02-11T06:13:43.999Z,7.10
2023-02-11T06:16:37.800Z,7.40
2023-02-11T06:19:32.144Z,7.80
2023-02-11T06:22:26.359Z,6.90
2023-02-11T06:25:20.380Z,8.20
2023-02-11T06:28:14.170Z,8.00
2023-02-11T06:31:09.764Z,8.00
2023-02-11T06:34:03.259Z,7.60
2023-02-11T06:36:57.009Z,9.60
2023-02-11T06:39:51.185Z,7.10
2023-02-11T06:42:45.003Z,7.80
2023-02-11T06:45:39.402Z,8.20
2023-02-11T06:48:31.891Z,7.50
2023-02-11T06:51:25.753Z,7.20
2023-02-11T06:54:19.515Z,8.30
2023-02-11T06:57:13.324Z,7.90
2023-02-11T07:00:09.152Z,8.60
2023-02-11T07:03:02.938Z,8.40
2023-02-11T07:05:57.344Z,9.30
2023-02-11T07:08:51.512Z,10.00
2023-02-11T07:11:45.440Z,7.20
2023-02-11T07:14:39.316Z,9.40
2023-02-11T07:17:33.254Z,8.30
2023-02-11T07:20:27.937Z,8.20
2023-02-11T07:23:22.063Z,9.20
2023-02-11T07:26:17.600Z,8.30
2023-02-11T07:29:11.175Z,8.30
2023-02-11T07:32:05.249Z,8.70
2023-02-11T07:34:59.339Z,7.80
2023-02-11T07:37:53.280Z,8.20
2023-02-11T07:40:47.164Z,8.00
2023-02-11T07:43:40.816Z,8.30
2023-02-11T07:46:35.689Z,9.20
2023-02-11T07:49:29.750Z,10.30
2023-02-11T07:52:23.730Z,8.40
2023-02-11T07:55:17.921Z,8.80
2023-02-11T07:58:11.799Z,10.70
2023-02-11T08:01:06.637Z,11.40
2023-02-11T08:04:00.694Z,11.10
2023-02-11T08:06:58.846Z,10.60
2023-02-11T08:09:52.339Z,10.50
2023-02-11T08:12:46.220Z,10.20
2023-02-11T08:15:40.078Z,10.50
2023-02-11T08:18:34.058Z,10.60
2023-02-11T08:21:28.511Z,11.10
2023-02-11T08:24:21.730Z,10.00
2023-02-11T08:27:16.052Z,9.50
2023-02-11T08:30:11.489Z,10.10
2023-02-11T08:33:05.121Z,8.60
2023-02-11T08:35:58.332Z,9.70
2023-02-11T08:38:51.546Z,8.10
2023-02-11T08:41:45.419Z,9.50
2023-02-11T08:44:39.256Z,9.70
2023-02-11T08:47:33.388Z,9.80
2023-02-11T08:50:28.480Z,10.10
2023-02-11T08:53:21.850Z,9.60
2023-02-11T08:56:17.061Z,8.60
2023-02-11T08:59:12.663Z,9.00
2023-02-11T09:02:06.004Z,9.70
2023-02-11T09:04:59.812Z,7.80
2023-02-11T09:07:53.804Z,8.90
2023-02-11T09:10:47.746Z,8.90
2023-02-11T09:13:43.067Z,8.80
2023-02-11T09:16:38.382Z,9.00
2023-02-11T09:19:31.786Z,8.50
2023-02-11T09:22:24.962Z,8.80
2023-02-11T09:25:19.367Z,8.30
2023-02-11T09:28:13.124Z,8.60
2023-02-11T09:31:09.632Z,8.40
2023-02-11T09:34:04.378Z,8.20
2023-02-11T09:36:58.219Z,7.80
2023-02-11T09:39:52.000Z,6.80
2023-02-11T09:42:50.988Z,8.70
2023-02-11T09:45:44.221Z,7.70
2023-02-11T09:48:41.376Z,7.10
2023-02-11T09:51:40.350Z,7.60
2023-02-11T09:54:35.338Z,8.50
2023-02-11T09:57:32.583Z,6.80
2023-02-11T10:00:28.544Z,8.10
2023-02-11T10:03:43.948Z,8.30
2023-02-11T10:06:45.073Z,8.50
2023-02-11T10:09:46.609Z,7.40
2023-02-11T10:12:48.277Z,9.50
2023-02-11T10:15:46.135Z,9.10
2023-02-11T10:19:11.195Z,8.20
2023-02-11T10:22:10.192Z,10.70
2023-02-11T10:25:03.619Z,10.40
2023-02-11T10:27:58.825Z,10.10
2023-02-11T10:30:57.197Z,10.50
2023-02-11T10:33:52.839Z,9.90
2023-02-11T10:36:46.914Z,11.70
2023-02-11T10:39:41.445Z,10.30
2023-02-11T10:42:35.296Z,13.20
2023-02-11T10:45:31.630Z,11.20
2023-02-11T10:48:42.884Z,11.90
2023-02-11T10:51:37.710Z,11.60
2023-02-11T10:54:30.943Z,9.80
2023-02-11T10:57:24.758Z,12.50
2023-02-11T11:00:30.778Z,9.30
2023-02-11T11:03:25.287Z,10.40
2023-02-11T11:06:18.656Z,10.20
2023-02-11T11:09:12.846Z,10.60
2023-02-11T11:12:11.431Z,9.70
2023-02-11T11:15:18.669Z,9.00
2023-02-11T11:18:23.180Z,8.70
2023-02-11T11:21:19.551Z,9.40
2023-02-11T11:24:19.138Z,9.00
2023-02-11T11:27:22.210Z,8.10
2023-02-11T11:30:19.049Z,8.20
2023-02-11T11:33:20.358Z,7.30
2023-02-11T11:36:15.831Z,7.50
2023-02-11T11:39:21.498Z,7.90
2023-02-11T11:42:27.242Z,7.20
2023-02-11T11:45:25.847Z,9.30
2023-02-11T11:48:22.211Z,8.10
2023-02-11T11:51:15.919Z,6.90
2023-02-11T11:54:12.539Z,7.20
2023-02-11T11:57:08.784Z,7.70
2023-02-11T12:00:02.646Z,7.10
2023-02-11T12:03:26.622Z,9.10
2023-02-11T12:06:28.281Z,7.90
2023-02-11T12:09:31.408Z,7.40
2023-02-11T12:12:32.414Z,7.20
2023-02-11T12:15:30.993Z,7.50
2023-02-11T12:19:08.720Z,8.40
2023-02-11T12:22:08.968Z,7.90
2023-02-11T12:25:10.214Z,7.20
2023-02-11T12:28:37.928Z,8.20
2023-02-11T12:31:47.688Z,8.40
2023-02-11T12:35:09.201Z,9.30
2023-02-11T12:38:15.889Z,8.50
2023-02-11T12:41:18.946Z,9.80
2023-02-11T12:44:15.752Z,9.30
2023-02-11T12:47:13.162Z,8.60
2023-02-11T12:50:16.036Z,9.90
2023-02-11T12:53:21.407Z,9.10
2023-02-11T12:56:17.855Z,10.00
2023-02-11T12:59:14.573Z,8.60
2023-02-11T13:02:13.073Z,8.60
2023-02-11T13:05:10.008Z,9.00
2023-02-11T13:08:08.204Z,7.90
2023-02-11T13:11:03.317Z,10.10
2023-02-11T13:13:58.780Z,10.10
2023-02-11T13:16:52.758Z,10.90
2023-02-11T13:19:47.495Z,10.60
2023-02-11T13:22:42.676Z,9.70
2023-02-11T13:25:37.527Z,10.80
2023-02-11T13:28:40.222Z,9.30
2023-02-11T13:31:33.984Z,10.90
2023-02-11T13:34:47.659Z,9.60
2023-02-11T13:37:41.446Z,8.80
2023-02-11T13:40:36.249Z,7.90
2023-02-11T13:43:29.723Z,9.90
2023-02-11T13:46:23.895Z,9.90
2023-02-11T13:49:23.799Z,10.90
2023-02-11T13:52:25.520Z,7.10
2023-02-11T13:55:24.086Z,11.10
2023-02-11T13:58:32.485Z,9.60
2023-02-11T14:02:20.955Z,9.60
2023-02-11T14:05:43.790Z,11.10
2023-02-11T14:08:55.541Z,10.10
2023-02-11T14:11:51.374Z,10.70
2023-02-11T14:15:15.135Z,10.50
2023-02-11T14:18:38.498Z,10.20
2023-02-11T14:21:40.391Z,10.80
2023-02-11T14:24:54.403Z,11.80
2023-02-11T14:27:51.542Z,10.20
2023-02-11T14:30:53.008Z,10.40
2023-02-11T14:34:06.266Z,10.80
2023-02-11T14:37:11.420Z,11.50
2023-02-11T14:40:12.085Z,10.50
2023-02-11T14:43:16.439Z,11.30
2023-02-11T14:46:09.826Z,10.70
2023-02-11T14:49:04.811Z,11.40
2023-02-11T14:51:59.357Z,11.00
2023-02-11T14:57:49.444Z,11.10
2023-02-11T15:00:52.372Z,12.20
2023-02-11T15:03:48.852Z,10.20
2023-02-11T15:06:43.630Z,10.90
2023-02-11T15:09:40.903Z,11.50
2023-02-11T15:12:35.440Z,11.90
2023-02-11T15:15:29.460Z,11.20
2023-02-11T15:18:24.343Z,11.80
2023-02-11T15:21:23.696Z,11.40
2023-02-11T15:24:26.740Z,11.50
2023-02-11T15:27:22.732Z,12.90
2023-02-11T15:30:31.874Z,12.90
2023-02-11T15:33:26.140Z,11.60
2023-02-11T15:36:20.459Z,13.10
2023-02-11T15:39:32.880Z,12.00
2023-02-11T15:42:28.245Z,10.40
2023-02-11T15:45:28.917Z,11.70
2023-02-11T15:48:26.551Z,12.60
2023-02-11T15:51:22.857Z,12.50
2023-02-11T15:54:20.712Z,14.00
2023-02-11T15:57:14.222Z,10.90
2023-02-11T16:00:15.964Z,12.10
2023-02-11T16:03:12.986Z,12.70
2023-02-11T16:06:24.322Z,14.40
2023-02-11T16:09:37.831Z,13.90
2023-02-11T16:12:31.642Z,13.70
2023-02-11T16:15:44.762Z,13.60
2023-02-11T16:18:40.346Z,14.40
2023-02-11T16:21:36.115Z,12.90
2023-02-11T16:24:30.693Z,13.10
2023-02-11T16:27:25.679Z,13.80
2023-02-11T16:30:27.782Z,14.70
2023-02-11T16:33:23.965Z,14.30
2023-02-11T16:36:18.291Z,14.70
2023-02-11T16:39:12.436Z,15.70
2023-02-11T16:42:07.856Z,15.00
2023-02-11T16:45:02.138Z,14.80
2023-02-11T16:47:55.449Z,14.70
2023-02-11T16:50:53.130Z,14.90
2023-02-11T16:53:46.942Z,15.50
2023-02-11T16:56:41.009Z,15.40
2023-02-11T16:59:34.804Z,15.30
2023-02-11T17:02:29.667Z,15.20
2023-02-11T17:05:25.143Z,13.70
2023-02-11T17:08:18.751Z,14.00
2023-02-11T17:11:16.662Z,13.90
2023-02-11T17:14:10.997Z,12.80
2023-02-11T17:17:04.876Z,12.20
2023-02-11T17:19:59.134Z,13.00
2023-02-11T17:22:53.077Z,16.70
2023-02-11T17:25:46.296Z,13.70
2023-02-11T17:28:40.710Z,13.40
2023-02-11T17:31:34.715Z,16.40
2023-02-11T17:34:29.542Z,16.80
2023-02-11T17:37:22.857Z,18.80
2023-02-11T17:40:17.889Z,14.00
2023-02-11T17:43:11.204Z,14.10
2023-02-11T17:46:08.380Z,13.60
2023-02-11T17:49:02.243Z,12.30
2023-02-11T17:51:55.699Z,13.40
2023-02-11T17:54:49.529Z,12.80
2023-02-11T17:57:43.652Z,13.20
2023-02-11T18:00:37.484Z,14.10
2023-02-11T18:03:31.302Z,14.30
2023-02-11T18:06:26.103Z,12.30
2023-02-11T18:09:19.993Z,14.70
2023-02-11T18:12:13.255Z,15.30
2023-02-11T18:15:08.399Z,18.40
2023-02-11T18:18:01.735Z,16.80
2023-02-11T18:20:59.705Z,14.90
2023-02-11T18:23:53.163Z,13.50
2023-02-11T18:26:47.458Z,13.10
2023-02-11T18:29:40.817Z,12.40
2023-02-11T18:32:34.867Z,11.10
2023-02-11T18:35:28.923Z,12.20
2023-02-11T18:38:23.028Z,11.80
2023-02-11T18:41:16.742Z,12.40
2023-02-11T18:44:11.648Z,11.50
2023-02-11T18:47:05.753Z,12.10
2023-02-11T18:49:59.765Z,12.20
2023-02-11T18:52:53.993Z,14.50
2023-02-11T18:55:48.648Z,14.00
2023-02-11T18:58:42.667Z,14.00
2023-02-11T19:01:36.139Z,15.60
2023-02-11T19:04:30.432Z,10.90
2023-02-11T19:07:25.179Z,11.00
2023-02-11T19:10:19.749Z,9.50
2023-02-11T19:13:13.395Z,10.40
2023-02-11T19:16:11.440Z,8.90
2023-02-11T19:19:04.948Z,8.70
2023-02-11T19:21:59.373Z,7.30
2023-02-11T19:24:52.404Z,7.60
2023-02-11T19:27:45.634Z,7.50
2023-02-11T19:30:39.821Z,7.20
2023-02-11T19:33:33.887Z,7.10
2023-02-11T19:36:27.803Z,7.60
2023-02-11T19:39:24.018Z,8.00
2023-02-11T19:42:17.869Z,7.30
2023-02-11T19:45:12.631Z,8.10
2023-02-11T19:48:06.215Z,7.80
2023-02-11T19:51:00.929Z,7.80
2023-02-11T19:53:55.171Z,8.90
2023-02-11T19:56:49.162Z,8.90
2023-02-11T19:59:43.199Z,8.50
2023-02-11T20:02:37.078Z,8.70
2023-02-11T20:05:31.554Z,8.20
2023-02-11T20:08:24.957Z,8.70
2023-02-11T20:11:19.657Z,7.70
2023-02-11T20:14:15.779Z,10.50
2023-02-11T20:17:09.046Z,18.40
2023-02-11T20:20:02.973Z,14.50
2023-02-11T20:22:57.536Z,12.40
2023-02-11T20:25:51.821Z,8.50
2023-02-11T20:28:46.411Z,7.90
2023-02-11T20:31:40.858Z,7.40
2023-02-11T20:34:34.921Z,7.10
2023-02-11T20:37:29.087Z,7.90
2023-02-11T20:40:22.950Z,7.40
2023-02-11T20:43:16.905Z,7.70
2023-02-11T20:46:11.958Z,6.70
2023-02-11T20:49:06.319Z,7.50
2023-02-11T20:52:00.624Z,7.70
2023-02-11T20:54:54.367Z,8.10
2023-02-11T20:57:48.841Z,7.60
2023-02-11T21:00:43.134Z,7.50
2023-02-11T21:03:37.136Z,19.60
2023-02-11T21:06:36.530Z,15.80
2023-02-11T21:09:32.040Z,20.10
2023-02-11T21:12:25.914Z,17.50
2023-02-11T21:15:21.347Z,23.40
2023-02-11T21:18:14.633Z,21.80
2023-02-11T21:21:09.153Z,20.30
2023-02-11T21:24:03.162Z,19.20
2023-02-11T21:27:01.202Z,17.30
2023-02-11T21:29:55.465Z,15.20
2023-02-11T21:32:49.637Z,9.10
2023-02-11T21:35:43.838Z,8.00
2023-02-11T21:38:38.353Z,8.90
2023-02-11T21:41:31.913Z,7.90
2023-02-11T21:44:25.822Z,8.10
2023-02-11T21:47:20.108Z,8.10
2023-02-11T21:50:14.675Z,7.60
2023-02-11T21:53:08.592Z,8.60
2023-02-11T21:56:11.227Z,8.50
2023-02-11T21:59:04.769Z,8.90
2023-02-11T22:01:59.940Z,8.70
2023-02-11T22:04:53.998Z,8.50
2023-02-11T22:07:48.260Z,11.50
2023-02-11T22:10:42.738Z,11.20
2023-02-11T22:13:37.029Z,9.50
2023-02-11T22:16:32.296Z,11.30
2023-02-11T22:19:25.545Z,10.30
2023-02-11T22:22:19.730Z,8.70
2023-02-11T22:25:13.617Z,8.90
2023-02-11T22:28:07.771Z,9.00
2023-02-11T22:31:01.816Z,8.60
2023-02-11T22:33:55.272Z,8.10
2023-02-11T22:36:49.136Z,7.40
2023-02-11T22:39:43.175Z,7.70
2023-02-11T22:42:36.987Z,7.30
2023-02-11T22:45:30.931Z,7.90
2023-02-11T22:48:24.859Z,7.90
2023-02-11T22:51:20.458Z,7.40
2023-02-11T22:54:14.658Z,8.00
2023-02-11T22:57:08.485Z,7.20
2023-02-11T23:00:02.452Z,8.40
2023-02-11T23:02:56.617Z,8.50
2023-02-11T23:05:51.090Z,9.60
2023-02-11T23:08:45.277Z,11.40
2023-02-11T23:11:39.344Z,11.10
2023-02-11T23:14:33.304Z,11.00
2023-02-11T23:17:28.973Z,11.90
2023-02-11T23:20:23.001Z,12.20
2023-02-11T23:23:16.985Z,9.50
2023-02-11T23:26:13.342Z,9.20
2023-02-11T23:31:59.715Z,8.00
2023-02-11T23:34:54.059Z,8.10
2023-02-11T23:37:48.040Z,7.60
2023-02-11T23:40:42.671Z,8.60
2023-02-11T23:43:36.429Z,10.10
2023-02-11T23:46:30.298Z,7.70
2023-02-11T23:49:24.329Z,7.70
2023-02-11T23:52:18.189Z,9.00
2023-02-11T23:55:13.589Z,9.40
2023-02-11T23:58:07.445Z,9.70
